Time;durP1;ratioP1;P1;durP2;ratioP2;P2;SDS_P1;SDS_P2;PMS_P1;PMS_P2;Temp;Humidity;BMP_temperature;BMP_pressure;BME280_temperature;BME280_humidity;BME280_pressure;Samples;Min_cycle;Max_cycle;Signal;HPM_P1;HPM_P2
2022/12/08 00:00:37;;;;;;;271.75;96.53;;;10.80;99.90;;;;;;4866543;29;20503;-92
2022/12/08 00:03:04;;;;;;;634.92;155.32;;;10.70;99.90;;;;;;4866272;29;20085;-90
2022/12/08 00:11:01;;;;;;;300.73;100.47;;;10.80;99.90;;;;;;4882130;29;19919;-93
2022/12/08 00:16:34;;;;;;;574.45;147.00;;;10.80;99.90;;;;;;4851226;29;20064;-85
2022/12/08 00:19:00;;;;;;;537.33;134.63;;;10.90;99.90;;;;;;4862941;29;20041;-92
2022/12/08 00:21:28;;;;;;;216.38;88.00;;;10.90;99.90;;;;;;4860159;29;20033;-93
2022/12/08 00:23:55;;;;;;;346.17;107.68;;;10.80;99.90;;;;;;4860324;29;20095;-92
2022/12/08 00:26:22;;;;;;;300.83;102.05;;;10.80;99.90;;;;;;4841678;29;20121;-90
2022/12/08 00:28:49;;;;;;;274.42;99.97;;;10.80;99.90;;;;;;4841550;29;20031;-91
2022/12/08 00:31:16;;;;;;;204.18;87.78;;;10.90;99.90;;;;;;4841682;29;20095;-90
2022/12/08 00:33:43;;;;;;;291.58;110.47;;;10.90;99.90;;;;;;4841654;29;20034;-91
2022/12/08 00:36:12;;;;;;;226.02;91.78;;;10.90;99.90;;;;;;4841355;29;20061;-89
2022/12/08 00:38:40;;;;;;;256.98;94.60;;;10.90;99.90;;;;;;4841354;29;20412;-91
2022/12/08 00:42:10;;;;;;;121.35;61.67;;;10.90;99.90;;;;;;4841162;29;20031;-90
2022/12/08 00:44:07;;;;;;;333.85;102.90;;;10.90;99.90;;;;;;4841338;29;20047;-89
2022/12/08 00:46:34;;;;;;;300.42;93.57;;;10.90;99.90;;;;;;4841263;29;20037;-91
2022/12/08 00:49:01;;;;;;;171.02;70.95;;;10.90;99.90;;;;;;4841316;29;20041;-90
2022/12/08 00:51:31;;;;;;;176.90;79.10;;;10.90;99.90;;;;;;4841310;29;20057;-89
2022/12/08 00:53:58;;;;;;;181.80;80.72;;;10.90;99.90;;;;;;4841230;29;20066;-90
2022/12/08 00:56:25;;;;;;;202.70;88.25;;;10.90;99.90;;;;;;4841129;29;20030;-90
2022/12/08 00:58:55;;;;;;;114.63;62.47;;;10.90;99.90;;;;;;4840930;29;20053;-90
2022/12/08 01:01:22;;;;;;;136.40;71.68;;;11.00;99.90;;;;;;4841098;29;20035;-88
2022/12/08 01:03:49;;;;;;;124.90;68.13;;;11.00;99.90;;;;;;4840977;29;20477;-90
2022/12/08 01:06:16;;;;;;;138.18;74.75;;;11.00;99.90;;;;;;4841200;29;20125;-90
2022/12/08 01:08:44;;;;;;;121.55;65.88;;;11.00;99.90;;;;;;4841024;29;20033;-88
2022/12/08 01:11:13;;;;;;;130.60;72.20;;;11.00;99.90;;;;;;4840661;29;20038;-90
2022/12/08 01:13:41;;;;;;;119.75;69.13;;;11.00;99.90;;;;;;4840812;29;20054;-90
2022/12/08 01:16:09;;;;;;;106.82;59.22;;;11.00;99.90;;;;;;4858262;29;20058;-90
2022/12/08 01:18:36;;;;;;;114.82;63.80;;;10.90;99.90;;;;;;4858858;29;20121;-90
2022/12/08 01:21:06;;;;;;;108.60;62.40;;;10.90;99.90;;;;;;4859061;29;20075;-90
2022/12/08 01:23:33;;;;;;;100.28;60.67;;;10.80;99.90;;;;;;4843670;29;20034;-91
2022/12/08 01:26:09;;;;;;;91.22;56.38;;;10.80;99.90;;;;;;4859027;29;20121;-89
2022/12/08 01:28:36;;;;;;;171.57;89.90;;;10.70;99.90;;;;;;4843527;29;20034;-91
2022/12/08 01:31:03;;;;;;;147.60;80.35;;;10.70;99.90;;;;;;4858758;29;20481;-91
2022/12/08 01:33:31;;;;;;;131.55;75.32;;;10.60;99.90;;;;;;4858727;29;20033;-91
2022/12/08 01:36:03;;;;;;;143.07;82.50;;;10.60;99.90;;;;;;4858580;29;20034;-90
2022/12/08 01:38:30;;;;;;;115.13;68.47;;;10.60;99.90;;;;;;4858657;29;20076;-91
2022/12/08 01:41:06;;;;;;;129.25;79.00;;;10.50;99.90;;;;;;4858846;29;20037;-90
2022/12/08 01:44:00;;;;;;;118.00;70.65;;;10.50;99.90;;;;;;4858702;29;20038;-91
2022/12/08 01:46:30;;;;;;;123.00;71.30;;;10.50;99.90;;;;;;4858606;29;20026;-92
2022/12/08 01:49:17;;;;;;;140.40;80.38;;;10.50;99.90;;;;;;4843105;29;20030;-91
2022/12/08 01:51:48;;;;;;;164.02;83.88;;;10.50;99.90;;;;;;4843118;29;20033;-90
2022/12/08 01:54:16;;;;;;;320.08;116.93;;;10.50;99.90;;;;;;4842542;29;20507;-91
2022/12/08 01:56:57;;;;;;;193.43;80.30;;;10.60;99.90;;;;;;4858401;29;20050;-90
2022/12/08 01:59:25;;;;;;;168.52;75.18;;;10.60;99.90;;;;;;4858524;29;20057;-89
2022/12/08 02:01:52;;;;;;;189.25;75.85;;;10.60;99.90;;;;;;4858242;29;20074;-92
2022/12/08 02:04:19;;;;;;;168.93;75.93;;;10.60;99.90;;;;;;4842945;29;20059;-91
2022/12/08 02:06:47;;;;;;;393.52;115.13;;;10.60;99.90;;;;;;4842586;29;20030;-89
2022/12/08 02:09:14;;;;;;;298.92;109.82;;;10.60;99.90;;;;;;4858225;29;20121;-91
2022/12/08 02:11:40;;;;;;;157.38;79.20;;;10.50;99.90;;;;;;4858086;29;20087;-90
2022/12/08 02:14:26;;;;;;;307.42;119.10;;;10.50;99.90;;;;;;4860358;29;20099;-92
2022/12/08 02:17:16;;;;;;;250.85;103.13;;;10.50;99.90;;;;;;4861518;29;20499;-91
2022/12/08 02:20:20;;;;;;;272.48;105.70;;;10.50;99.90;;;;;;4861043;29;20045;-91
2022/12/08 02:23:14;;;;;;;267.70;102.28;;;10.50;99.90;;;;;;4845806;29;20387;-90
2022/12/08 02:26:14;;;;;;;190.30;88.20;;;10.60;99.90;;;;;;4845863;29;20399;-90
2022/12/08 02:29:18;;;;;;;113.30;60.70;;;10.60;99.90;;;;;;4845670;29;20041;-92
2022/12/08 02:32:03;;;;;;;118.03;64.43;;;10.60;99.90;;;;;;4845557;29;20034;-91
2022/12/08 02:34:44;;;;;;;138.02;71.88;;;10.70;99.90;;;;;;4845720;29;20053;-91
2022/12/08 02:37:31;;;;;;;107.53;57.97;;;10.80;99.90;;;;;;4845454;29;20037;-89
2022/12/08 02:40:19;;;;;;;93.85;54.13;;;10.80;99.90;;;;;;4845466;29;20041;-90
2022/12/08 02:43:02;;;;;;;112.60;58.35;;;10.80;99.90;;;;;;4860787;29;20568;-92
2022/12/08 02:45:56;;;;;;;98.47;54.53;;;10.70;99.90;;;;;;4860724;29;20104;-89
2022/12/08 02:48:27;;;;;;;84.47;43.97;;;10.80;99.90;;;;;;4845393;29;20080;-91
2022/12/08 02:50:54;;;;;;;81.00;38.95;;;10.80;99.90;;;;;;4860799;29;20399;-90
2022/12/08 02:53:20;;;;;;;80.40;34.67;;;11.00;99.90;;;;;;4845451;29;20108;-92
2022/12/08 02:55:56;;;;;;;67.75;28.02;;;11.10;99.90;;;;;;4845352;29;20037;-90
2022/12/08 02:58:34;;;;;;;62.42;23.80;;;11.30;99.90;;;;;;4845169;29;20128;-91
2022/12/08 03:01:22;;;;;;;66.32;24.10;;;11.50;99.90;;;;;;4860627;29;20029;-91
2022/12/08 03:03:55;;;;;;;64.30;23.80;;;11.60;99.90;;;;;;4861448;29;20045;-91
2022/12/08 03:06:31;;;;;;;65.80;21.00;;;11.70;99.90;;;;;;4864438;29;20035;-91
2022/12/08 03:09:11;;;;;;;48.85;16.83;;;11.70;99.90;;;;;;4849262;29;20033;-91
2022/12/08 03:12:09;;;;;;;39.95;13.55;;;11.80;99.90;;;;;;4848937;29;20519;-91
2022/12/08 03:14:40;;;;;;;47.80;12.75;;;12.00;99.90;;;;;;4845778;29;20560;-92
2022/12/08 03:17:08;;;;;;;52.80;11.23;;;12.10;99.90;;;;;;4845957;29;20061;-90
2022/12/08 03:19:49;;;;;;;36.97;8.05;;;12.20;99.90;;;;;;4845645;29;20552;-90
2022/12/08 03:22:21;;;;;;;49.58;9.60;;;12.40;99.90;;;;;;4861044;29;20037;-89
2022/12/08 03:24:49;;;;;;;34.17;8.10;;;12.60;99.90;;;;;;4860997;29;20128;-90
2022/12/08 03:27:29;;;;;;;31.90;8.30;;;12.60;99.90;;;;;;4861368;29;20035;-92
2022/12/08 03:29:58;;;;;;;41.72;8.07;;;12.50;99.90;;;;;;4860929;29;20116;-90
2022/12/08 03:33:04;;;;;;;40.35;7.00;;;12.60;99.90;;;;;;4861005;29;20373;-90
2022/12/08 03:35:35;;;;;;;34.15;6.93;;;12.80;99.90;;;;;;4808373;29;20520;-92
2022/12/08 03:38:13;;;;;;;31.52;5.88;;;12.90;99.90;;;;;;4808208;29;20042;-90
2022/12/08 03:40:41;;;;;;;38.10;7.70;;;12.80;99.90;;;;;;4808367;29;20516;-91
2022/12/08 03:43:10;;;;;;;27.48;6.22;;;12.90;99.90;;;;;;4808340;29;20035;-90
2022/12/08 03:45:36;;;;;;;36.05;7.55;;;12.90;99.90;;;;;;4808297;29;20039;-90
2022/12/08 03:48:03;;;;;;;35.63;5.43;;;12.80;99.90;;;;;;4808312;29;20080;-92
2022/12/08 03:50:29;;;;;;;35.83;6.57;;;12.90;99.90;;;;;;4808232;29;20076;-91
2022/12/08 03:52:58;;;;;;;35.13;6.53;;;12.90;99.90;;;;;;4808283;29;20125;-90
2022/12/08 03:55:25;;;;;;;31.38;6.63;;;13.00;99.90;;;;;;4807878;29;20408;-90
2022/12/08 03:57:52;;;;;;;27.92;6.32;;;13.10;99.90;;;;;;4807845;29;20039;-93
2022/12/08 04:00:18;;;;;;;34.22;7.70;;;13.10;99.90;;;;;;4808122;29;20042;-91
2022/12/08 04:02:45;;;;;;;38.60;6.85;;;13.30;99.90;;;;;;4808168;29;20104;-90
2022/12/08 04:05:11;;;;;;;29.25;6.35;;;13.30;99.90;;;;;;4807943;29;20039;-91
2022/12/08 04:07:38;;;;;;;43.63;7.78;;;13.20;99.90;;;;;;4807818;29;20045;-90
2022/12/08 04:10:05;;;;;;;47.78;7.85;;;13.20;99.90;;;;;;4807907;29;20045;-90
2022/12/08 04:12:32;;;;;;;32.95;6.97;;;13.20;99.90;;;;;;4847763;29;20068;-92
2022/12/08 04:14:58;;;;;;;31.85;7.82;;;13.20;99.90;;;;;;4844466;29;20065;-91
2022/12/08 04:17:26;;;;;;;36.78;7.40;;;13.20;99.90;;;;;;4859709;29;20044;-91
2022/12/08 04:19:52;;;;;;;31.10;8.57;;;13.20;99.90;;;;;;4860053;29;20038;-90
2022/12/08 04:22:19;;;;;;;38.30;7.88;;;13.20;99.90;;;;;;4860161;29;20400;-92
2022/12/08 04:24:46;;;;;;;45.85;8.82;;;13.20;99.90;;;;;;4859836;29;20034;-91
2022/12/08 04:27:13;;;;;;;42.38;9.35;;;13.20;99.90;;;;;;4844696;29;20117;-92
2022/12/08 04:29:39;;;;;;;40.22;8.40;;;13.20;99.90;;;;;;4859904;29;20033;-90
2022/12/08 04:32:06;;;;;;;43.78;7.97;;;13.20;99.90;;;;;;4859781;29;20063;-93
2022/12/08 04:34:32;;;;;;;39.53;7.97;;;13.30;99.90;;;;;;4860087;29;20086;-90
2022/12/08 04:36:59;;;;;;;38.65;8.88;;;13.30;99.90;;;;;;4859933;29;20560;-92
2022/12/08 04:39:25;;;;;;;33.42;8.80;;;13.40;99.90;;;;;;4859518;29;20050;-91
2022/12/08 04:41:55;;;;;;;51.80;9.10;;;13.40;99.90;;;;;;4859725;29;20388;-90
2022/12/08 04:44:22;;;;;;;31.48;8.25;;;13.60;99.90;;;;;;4859723;29;20121;-92
2022/12/08 04:46:48;;;;;;;27.80;8.25;;;13.60;99.90;;;;;;4859554;29;20033;-92
2022/12/08 04:49:15;;;;;;;31.70;8.80;;;13.50;99.90;;;;;;4859599;29;20057;-91
2022/12/08 04:51:41;;;;;;;31.08;8.90;;;13.60;99.90;;;;;;4859648;29;20030;-90
2022/12/08 04:54:08;;;;;;;34.80;7.68;;;13.60;99.90;;;;;;4859502;29;20034;-92
2022/12/08 04:56:34;;;;;;;40.70;8.32;;;13.60;99.90;;;;;;4859503;29;20063;-90
2022/12/08 04:59:00;;;;;;;37.75;9.13;;;13.60;99.90;;;;;;4859429;29;20042;-91
2022/12/08 05:01:27;;;;;;;40.88;8.52;;;13.70;99.90;;;;;;4859461;29;20094;-90
2022/12/08 05:03:54;;;;;;;41.47;8.77;;;13.80;99.90;;;;;;4859308;29;20042;-90
2022/12/08 05:06:20;;;;;;;35.13;8.65;;;13.70;99.90;;;;;;4859247;29;20113;-92
2022/12/08 05:08:47;;;;;;;44.45;9.30;;;13.70;99.90;;;;;;4859476;29;20458;-91
2022/12/08 05:11:16;;;;;;;36.13;7.93;;;13.60;99.90;;;;;;4859263;29;20129;-91
2022/12/08 05:13:43;;;;;;;44.38;9.10;;;13.70;99.90;;;;;;4859200;29;20041;-92
2022/12/08 05:16:12;;;;;;;39.40;8.18;;;13.60;99.90;;;;;;4858994;29;20054;-91
2022/12/08 05:18:40;;;;;;;31.67;8.38;;;13.60;99.90;;;;;;4858875;29;20069;-93
2022/12/08 05:21:19;;;;;;;40.33;8.70;;;13.70;99.90;;;;;;4859043;29;20037;-93
2022/12/08 05:23:46;;;;;;;38.72;9.18;;;13.70;99.90;;;;;;4859001;29;20034;-91
2022/12/08 05:26:15;;;;;;;37.00;8.57;;;13.70;99.90;;;;;;4859215;29;20022;-92
2022/12/08 05:28:42;;;;;;;58.95;10.00;;;13.80;99.90;;;;;;4857926;29;20048;-92
2022/12/08 05:31:10;;;;;;;38.42;8.98;;;13.70;99.90;;;;;;4858998;29;20034;-91
2022/12/08 05:33:36;;;;;;;50.63;10.43;;;13.70;99.90;;;;;;4859310;29;20040;-92
2022/12/08 05:36:03;;;;;;;40.83;9.40;;;13.70;99.90;;;;;;4858823;29;20105;-91
2022/12/08 05:38:29;;;;;;;45.80;8.57;;;13.60;99.90;;;;;;4858602;29;20048;-92
2022/12/08 05:40:56;;;;;;;44.70;9.32;;;13.60;99.90;;;;;;4858842;29;20026;-91
2022/12/08 05:43:23;;;;;;;43.67;8.73;;;13.60;99.90;;;;;;4858945;29;20026;-91
2022/12/08 05:45:49;;;;;;;34.10;9.38;;;13.60;99.90;;;;;;4858605;29;20038;-92
2022/12/08 05:48:16;;;;;;;43.75;9.45;;;13.50;99.90;;;;;;4858454;29;20061;-92
2022/12/08 05:50:52;;;;;;;55.55;10.30;;;13.60;99.90;;;;;;4858625;29;20038;-91
2022/12/08 05:53:20;;;;;;;39.47;9.95;;;13.50;99.90;;;;;;4858519;29;20444;-91
2022/12/08 05:55:47;;;;;;;35.10;9.18;;;13.50;99.90;;;;;;4858349;29;20400;-91
2022/12/08 05:58:16;;;;;;;33.53;8.98;;;13.40;99.90;;;;;;4858488;29;20041;-92
2022/12/08 06:00:43;;;;;;;48.15;9.43;;;13.40;99.90;;;;;;4858509;29;20105;-92
2022/12/08 06:03:13;;;;;;;39.83;10.07;;;13.40;99.90;;;;;;4858312;29;20026;-93
2022/12/08 06:05:41;;;;;;;36.28;9.82;;;13.40;99.90;;;;;;4858321;29;20432;-92
2022/12/08 06:08:09;;;;;;;42.88;9.90;;;13.30;99.90;;;;;;4858272;29;20030;-92
2022/12/08 06:10:41;;;;;;;43.58;10.40;;;13.40;99.90;;;;;;4858256;29;20067;-91
2022/12/08 06:13:07;;;;;;;50.00;11.32;;;13.30;99.90;;;;;;4842784;29;20511;-90
2022/12/08 06:15:35;;;;;;;40.33;10.15;;;13.30;99.90;;;;;;4858190;29;20058;-91
2022/12/08 06:18:02;;;;;;;47.10;10.40;;;13.40;99.90;;;;;;4842742;29;20058;-92
2022/12/08 06:20:28;;;;;;;42.72;10.77;;;13.40;99.90;;;;;;4858089;29;20480;-93
2022/12/08 06:22:55;;;;;;;42.72;11.90;;;13.30;99.90;;;;;;4858111;29;20044;-92
2022/12/08 06:25:22;;;;;;;41.15;11.65;;;13.40;99.90;;;;;;4857982;29;20034;-92
2022/12/08 06:27:49;;;;;;;50.15;11.43;;;13.40;99.90;;;;;;4858280;29;20030;-91
2022/12/08 06:30:31;;;;;;;37.70;10.75;;;13.40;99.90;;;;;;4857895;29;20488;-93
2022/12/08 06:32:58;;;;;;;46.10;9.70;;;13.40;99.90;;;;;;4858229;29;20090;-91
2022/12/08 06:35:25;;;;;;;41.67;10.32;;;13.40;99.90;;;;;;4857655;29;20112;-91
2022/12/08 06:37:51;;;;;;;36.00;11.30;;;13.50;99.90;;;;;;4857860;29;20030;-93
2022/12/08 06:40:18;;;;;;;46.13;11.32;;;13.60;99.90;;;;;;4842146;29;20041;-92
2022/12/08 06:42:51;;;;;;;33.90;9.07;;;13.60;99.90;;;;;;4857535;29;20090;-92
2022/12/08 06:45:21;;;;;;;43.00;10.43;;;13.70;99.90;;;;;;4857891;29;20046;-94
2022/12/08 06:47:47;;;;;;;46.47;13.18;;;13.70;99.90;;;;;;4857765;29;20433;-92
2022/12/08 06:50:16;;;;;;;50.58;14.90;;;13.90;99.90;;;;;;4858106;29;20054;-94
2022/12/08 06:52:44;;;;;;;45.10;12.63;;;14.00;99.90;;;;;;4857506;29;20067;-91
2022/12/08 06:55:11;;;;;;;35.42;9.75;;;14.00;99.90;;;;;;4857753;29;20057;-94
2022/12/08 06:57:47;;;;;;;44.35;11.00;;;14.20;99.90;;;;;;4857487;29;20040;-91
2022/12/08 07:00:21;;;;;;;41.60;8.90;;;14.30;99.90;;;;;;4857491;29;20042;-92
2022/12/08 07:02:47;;;;;;;39.33;9.82;;;14.50;99.90;;;;;;4857566;29;20034;-93
2022/12/08 07:05:14;;;;;;;40.33;8.60;;;14.50;99.90;;;;;;4857754;29;20062;-90
2022/12/08 07:07:47;;;;;;;47.67;9.20;;;14.60;99.90;;;;;;4857565;29;20038;-92
2022/12/08 07:10:14;;;;;;;51.25;9.10;;;14.70;99.90;;;;;;4857499;29;20124;-92
2022/12/08 07:12:40;;;;;;;62.53;10.25;;;14.70;99.90;;;;;;4857649;29;20030;-93
2022/12/08 07:15:08;;;;;;;35.20;8.90;;;14.70;99.90;;;;;;4858162;29;20060;-92
2022/12/08 07:17:34;;;;;;;40.35;9.43;;;14.80;99.90;;;;;;4841814;29;20117;-93
2022/12/08 07:20:01;;;;;;;33.42;9.23;;;14.80;99.90;;;;;;4857514;29;20042;-93
2022/12/08 07:22:36;;;;;;;35.10;8.95;;;14.90;99.90;;;;;;4857541;29;20027;-92
2022/12/08 07:25:07;;;;;;;38.72;8.82;;;15.00;99.90;;;;;;4857362;29;20094;-92
2022/12/08 07:27:34;;;;;;;39.08;8.77;;;15.10;99.90;;;;;;4857307;29;20030;-92
2022/12/08 07:30:00;;;;;;;33.53;8.38;;;15.20;99.90;;;;;;4857346;29;20026;-92
2022/12/08 07:32:27;;;;;;;44.95;10.55;;;15.20;99.90;;;;;;4857311;29;20090;-91
2022/12/08 07:34:54;;;;;;;34.42;8.25;;;15.30;99.90;;;;;;4841876;29;20034;-93
2022/12/08 07:37:21;;;;;;;47.58;8.88;;;15.20;99.90;;;;;;4857357;29;20495;-93
2022/12/08 07:39:54;;;;;;;37.50;8.82;;;15.30;99.90;;;;;;4857825;29;20045;-93
2022/12/08 07:42:20;;;;;;;40.50;9.00;;;15.40;99.90;;;;;;4857705;29;20037;-94
2022/12/08 07:44:50;;;;;;;40.60;8.35;;;15.50;99.90;;;;;;4857541;29;20058;-92
2022/12/08 07:47:17;;;;;;;45.25;9.45;;;15.60;99.90;;;;;;4857726;29;20033;-92
2022/12/08 07:49:44;;;;;;;40.10;7.60;;;15.80;99.90;;;;;;4858141;29;20034;-92
2022/12/08 07:52:16;;;;;;;50.30;7.97;;;15.70;99.90;;;;;;4860203;29;20045;-90
2022/12/08 07:54:49;;;;;;;44.00;7.95;;;15.80;99.90;;;;;;4861141;29;20041;-91
2022/12/08 07:57:34;;;;;;;45.10;9.35;;;15.80;99.90;;;;;;4860819;29;20038;-90
2022/12/08 08:00:11;;;;;;;48.85;9.70;;;15.70;99.90;;;;;;4860748;29;20037;-92
2022/12/08 08:02:38;;;;;;;43.42;9.07;;;15.70;99.90;;;;;;4860910;29;20585;-93
2022/12/08 08:05:06;;;;;;;43.55;8.23;;;15.70;99.90;;;;;;4860580;29;20079;-91
2022/12/08 08:07:32;;;;;;;53.90;10.23;;;15.70;99.90;;;;;;4860837;29;20034;-92
2022/12/08 08:09:59;;;;;;;36.58;8.20;;;15.90;99.90;;;;;;4860433;29;20032;-91
2022/12/08 08:19:26;;;;;;;41.00;8.70;;;16.30;99.90;;;;;;4882390;29;20630;-92
2022/12/08 08:21:52;;;;;;;47.08;9.23;;;16.50;99.90;;;;;;4881905;29;20075;-92
2022/12/08 08:24:21;;;;;;;49.05;9.07;;;16.50;99.90;;;;;;4881816;29;20061;-91
2022/12/08 08:26:48;;;;;;;43.33;9.98;;;16.50;99.90;;;;;;4881663;29;20029;-91
2022/12/08 08:29:14;;;;;;;49.75;10.10;;;16.60;99.90;;;;;;4881812;29;20057;-93
2022/12/08 08:31:41;;;;;;;51.38;9.13;;;16.50;99.90;;;;;;4881806;29;20033;-94
2022/12/08 08:34:07;;;;;;;47.75;9.95;;;16.60;99.90;;;;;;4866362;29;20056;-93
2022/12/08 08:36:35;;;;;;;39.50;9.98;;;16.70;99.90;;;;;;4881730;29;20037;-93
2022/12/08 08:39:03;;;;;;;39.53;8.80;;;16.80;99.90;;;;;;4881850;29;20499;-92
2022/12/08 08:41:30;;;;;;;48.20;9.77;;;16.90;99.90;;;;;;4883157;29;20479;-93
2022/12/08 08:43:56;;;;;;;47.70;9.70;;;16.90;99.90;;;;;;4881540;29;20120;-92
2022/12/08 08:46:24;;;;;;;49.83;10.23;;;17.00;99.90;;;;;;4881355;29;20041;-90
2022/12/08 08:48:51;;;;;;;44.38;9.45;;;17.00;99.90;;;;;;4897124;29;20065;-90
2022/12/08 08:51:18;;;;;;;42.83;10.68;;;16.90;99.90;;;;;;4881320;29;20025;-90
2022/12/08 08:53:44;;;;;;;52.55;11.55;;;17.10;99.90;;;;;;4896815;29;20101;-91
2022/12/08 08:56:18;;;;;;;41.55;10.98;;;17.20;99.90;;;;;;4896677;29;20112;-92
2022/12/08 08:58:48;;;;;;;41.38;11.57;;;17.30;99.90;;;;;;4896573;29;20048;-93
2022/12/08 09:01:33;;;;;;;30.58;9.98;;;17.40;99.90;;;;;;4897000;29;20503;-93
2022/12/08 09:04:00;;;;;;;35.08;10.45;;;17.50;99.90;;;;;;4881149;29;20033;-91
2022/12/08 09:06:27;;;;;;;45.08;11.15;;;17.30;99.90;;;;;;4896559;29;20503;-91
2022/12/08 09:08:57;;;;;;;51.72;11.30;;;17.20;99.90;;;;;;4896861;29;20033;-90
2022/12/08 09:11:23;;;;;;;45.20;11.02;;;17.20;99.90;;;;;;4896572;29;20029;-90
2022/12/08 09:13:52;;;;;;;46.55;11.02;;;17.40;99.90;;;;;;4896312;29;20479;-93
2022/12/08 09:16:19;;;;;;;45.75;11.25;;;17.40;99.90;;;;;;4896933;29;20037;-92
2022/12/08 09:18:48;;;;;;;42.70;12.60;;;17.40;99.90;;;;;;4899710;29;20044;-92
2022/12/08 09:21:27;;;;;;;42.92;11.55;;;17.40;99.90;;;;;;4899557;29;20473;-91
2022/12/08 09:23:57;;;;;;;44.80;11.25;;;17.60;99.90;;;;;;4899148;29;20032;-91
2022/12/08 09:26:25;;;;;;;51.22;11.88;;;17.60;99.90;;;;;;4899425;29;20044;-91
2022/12/08 09:28:54;;;;;;;37.35;12.85;;;17.70;99.90;;;;;;4899189;29;20032;-94
2022/12/08 09:31:22;;;;;;;41.53;12.50;;;17.80;99.90;;;;;;4899108;29;20024;-95
2022/12/08 09:33:51;;;;;;;47.03;13.00;;;17.70;99.90;;;;;;4899657;29;20032;-93
2022/12/08 09:36:19;;;;;;;42.20;12.07;;;17.60;99.90;;;;;;4899069;29;20084;-92
2022/12/08 09:38:47;;;;;;;44.05;12.68;;;17.80;99.90;;;;;;4899301;29;20123;-91
2022/12/08 09:41:40;;;;;;;35.40;12.52;;;17.90;99.90;;;;;;4899861;29;20029;-93
2022/12/08 09:44:40;;;;;;;32.45;11.40;;;18.10;99.90;;;;;;4868267;29;20048;-93
2022/12/08 09:47:36;;;;;;;50.13;13.10;;;18.30;99.90;;;;;;4868085;29;20029;-92
2022/12/08 09:50:38;;;;;;;31.33;12.88;;;18.40;99.90;;;;;;4898976;29;20032;-91
2022/12/08 09:53:34;;;;;;;41.25;12.75;;;18.40;99.90;;;;;;4881653;29;20049;-91
2022/12/08 09:56:22;;;;;;;47.97;13.25;;;18.50;99.90;;;;;;4898844;29;20029;-93
2022/12/08 09:59:08;;;;;;;36.17;12.88;;;18.60;99.90;;;;;;4898509;29;20513;-92
2022/12/08 10:01:40;;;;;;;41.55;13.00;;;18.50;99.90;;;;;;4884354;29;20037;-93
2022/12/08 10:04:25;;;;;;;37.70;14.98;;;18.60;99.90;;;;;;4898717;29;20032;-93
2022/12/08 10:07:20;;;;;;;38.53;14.52;;;18.70;99.90;;;;;;4867680;29;20029;-92
2022/12/08 10:10:03;;;;;;;37.85;13.20;;;18.70;99.90;;;;;;4898235;29;20029;-91
2022/12/08 10:12:51;;;;;;;33.03;13.10;;;18.70;99.90;;;;;;4898489;29;20040;-91
2022/12/08 10:15:40;;;;;;;27.92;12.57;;;18.80;99.90;;;;;;4882821;29;20039;-93
2022/12/08 10:18:28;;;;;;;34.03;13.18;;;18.80;99.90;;;;;;4894922;29;20060;-92
2022/12/08 10:21:17;;;;;;;36.35;13.95;;;19.00;99.90;;;;;;4895530;29;20033;-94
2022/12/08 10:23:57;;;;;;;35.40;14.55;;;19.10;99.90;;;;;;4895289;29;20487;-93
2022/12/08 10:26:24;;;;;;;27.15;14.50;;;19.20;99.90;;;;;;4895129;29;20549;-93
2022/12/08 10:28:51;;;;;;;30.95;14.70;;;19.00;99.90;;;;;;4895161;29;20033;-92
2022/12/08 10:31:22;;;;;;;32.92;14.20;;;19.10;99.90;;;;;;4879647;29;20029;-92
2022/12/08 10:33:59;;;;;;;50.10;15.35;;;19.20;99.90;;;;;;4864103;29;20029;-93
2022/12/08 10:37:04;;;;;;;28.58;13.90;;;19.10;99.90;;;;;;4895129;29;20128;-91
2022/12/08 10:39:44;;;;;;;39.00;14.20;;;19.10;99.90;;;;;;4894840;29;20053;-90
2022/12/08 10:42:33;;;;;;;41.88;13.90;;;19.00;99.90;;;;;;4895077;29;20045;-91
2022/12/08 10:45:22;;;;;;;35.95;15.45;;;18.70;99.90;;;;;;4894922;29;20037;-91
2022/12/08 12:07:42;;;;;;;35.25;17.38;;;18.80;99.90;;;;;;5816136;23;20052;-94
2022/12/08 12:10:34;;;;;;;44.40;17.25;;;18.70;99.90;;;;;;4884851;29;20051;-93
2022/12/08 12:13:44;;;;;;;31.63;15.43;;;18.60;99.90;;;;;;4885756;29;20422;-93
2022/12/08 12:16:49;;;;;;;58.33;15.43;;;18.60;99.90;;;;;;4928350;23;20080;-92
2022/12/08 12:19:18;;;;;;;32.63;14.43;;;18.40;99.90;;;;;;4888226;29;20080;-92
2022/12/08 12:21:54;;;;;;;48.58;15.52;;;18.40;99.90;;;;;;4888671;29;20150;-92
2022/12/08 12:24:31;;;;;;;37.25;14.57;;;18.50;99.90;;;;;;4901047;29;20046;-92
2022/12/08 12:27:18;;;;;;;38.85;15.32;;;18.60;99.90;;;;;;4900561;29;20063;-92
2022/12/08 12:29:58;;;;;;;33.08;14.43;;;18.60;99.90;;;;;;4901119;29;20104;-92
2022/12/08 12:32:38;;;;;;;46.38;15.50;;;18.60;99.90;;;;;;4901517;29;20534;-94
2022/12/08 12:35:34;;;;;;;50.35;14.98;;;18.50;99.90;;;;;;4900391;29;20036;-92
2022/12/08 12:38:59;;;;;;;40.05;15.40;;;18.50;99.90;;;;;;4883908;29;20036;-90
2022/12/08 12:41:01;;;;;;;37.33;16.67;;;18.40;99.90;;;;;;4901689;29;20029;-93
2022/12/08 12:43:32;;;;;;;40.92;17.42;;;18.40;99.90;;;;;;4900626;29;20293;-93
2022/12/08 12:46:23;;;;;;;35.70;16.77;;;18.50;99.90;;;;;;4885540;29;20092;-93
2022/12/08 12:48:51;;;;;;;37.17;15.80;;;18.60;99.90;;;;;;4884650;29;20033;-94
2022/12/08 12:51:54;;;;;;;32.55;14.65;;;18.60;99.90;;;;;;4884675;29;20032;-92
2022/12/08 12:54:25;;;;;;;40.08;16.73;;;18.70;99.90;;;;;;4900163;29;20513;-92
2022/12/08 12:56:53;;;;;;;39.58;17.42;;;18.70;99.90;;;;;;4899953;29;20044;-92
2022/12/08 12:59:45;;;;;;;60.00;23.85;;;18.70;99.90;;;;;;4884281;29;20047;-92
2022/12/08 13:02:22;;;;;;;52.30;20.20;;;18.70;99.90;;;;;;4884477;29;20060;-93
2022/12/08 13:05:23;;;;;;;43.70;18.40;;;18.70;99.90;;;;;;4901213;29;20036;-92
2022/12/08 13:18:50;;;;;;;39.20;14.40;;;18.10;99.90;;;;;;5144618;23;20127;-91
2022/12/08 13:21:37;;;;;;;55.42;16.02;;;18.00;99.90;;;;;;4900396;29;20033;-92
2022/12/08 13:39:33;;;;;;;39.35;13.55;;;17.70;99.90;;;;;;4937227;29;20043;-94
2022/12/08 13:42:24;;;;;;;45.85;16.75;;;17.60;99.90;;;;;;4861896;29;20040;-93
2022/12/08 13:45:45;;;;;;;49.47;16.33;;;17.40;99.90;;;;;;4904289;29;20040;-93
2022/12/08 15:33:15;;;;;;;52.38;14.45;;;15.30;99.90;;;;;;5184924;23;20079;-94
2022/12/08 15:44:31;;;;;;;34.92;10.20;;;15.00;99.90;;;;;;5449644;23;20055;-93
2022/12/08 15:46:59;;;;;;;48.83;17.02;;;15.00;99.90;;;;;;4882097;29;20071;-90
2022/12/08 15:49:26;;;;;;;54.42;23.95;;;14.90;99.90;;;;;;4882384;29;20036;-91
2022/12/08 15:51:53;;;;;;;45.95;14.77;;;14.90;99.90;;;;;;4881909;29;20032;-92
2022/12/08 15:54:20;;;;;;;41.08;14.48;;;14.80;99.90;;;;;;4881800;29;20044;-92
2022/12/08 15:56:55;;;;;;;38.20;13.75;;;14.70;99.90;;;;;;4881869;29;20055;-91
2022/12/08 15:59:24;;;;;;;46.15;15.70;;;14.70;99.90;;;;;;4882024;29;20128;-91
2022/12/08 16:01:51;;;;;;;55.45;19.70;;;14.60;99.90;;;;;;4881979;29;20112;-92
2022/12/08 16:04:20;;;;;;;40.85;14.30;;;14.60;99.90;;;;;;4881773;29;20041;-91
2022/12/08 16:06:51;;;;;;;56.13;14.93;;;14.60;99.90;;;;;;4881958;29;20052;-90
2022/12/08 16:09:27;;;;;;;51.88;16.45;;;14.50;99.90;;;;;;4881828;29;20029;-94
2022/12/08 16:15:01;;;;;;;48.13;17.98;;;14.40;99.90;;;;;;4862892;29;20041;-92
2022/12/08 16:17:28;;;;;;;56.53;20.23;;;14.40;99.90;;;;;;4889143;29;20499;-91
2022/12/08 16:19:55;;;;;;;67.75;19.30;;;14.40;99.90;;;;;;4885154;29;20163;-91
2022/12/08 16:22:25;;;;;;;51.28;19.90;;;14.30;99.90;;;;;;4884976;29;20395;-91
2022/12/08 16:24:51;;;;;;;64.35;22.33;;;14.30;99.90;;;;;;4884766;29;20043;-92
2022/12/08 16:27:31;;;;;;;54.58;23.42;;;14.30;99.90;;;;;;4884819;29;20471;-91
2022/12/08 16:29:58;;;;;;;56.58;23.20;;;14.30;99.90;;;;;;4884627;29;20063;-92
2022/12/08 16:32:26;;;;;;;57.35;22.52;;;14.30;99.90;;;;;;4884874;29;20037;-91
2022/12/08 16:34:53;;;;;;;68.55;27.15;;;14.30;99.90;;;;;;4884609;29;20024;-91
2022/12/08 16:37:23;;;;;;;61.53;27.23;;;14.20;99.90;;;;;;4884982;29;20032;-90
2022/12/08 16:39:51;;;;;;;77.18;29.15;;;14.30;99.90;;;;;;4884732;29;20073;-91
2022/12/08 16:42:42;;;;;;;93.63;42.70;;;14.20;99.90;;;;;;4884723;29;20033;-90
2022/12/08 16:45:13;;;;;;;54.92;23.92;;;14.20;99.90;;;;;;4884166;29;20048;-91
2022/12/08 16:47:46;;;;;;;66.07;25.85;;;14.20;99.90;;;;;;4884722;29;20028;-92
2022/12/08 16:50:25;;;;;;;59.65;25.88;;;14.20;99.90;;;;;;4884421;29;20029;-91
2022/12/08 16:53:04;;;;;;;61.63;27.27;;;14.10;99.90;;;;;;4884442;29;20036;-92
2022/12/08 16:55:32;;;;;;;69.18;32.00;;;14.10;99.90;;;;;;4884294;29;20036;-92